createdAt,value
2022-10-17T00:01:26.930Z,97.76
2022-10-17T00:04:29.043Z,96.95
2022-10-17T00:07:31.468Z,96.86
2022-10-17T00:10:33.595Z,97.59
2022-10-17T00:13:36.257Z,99.22
2022-10-17T00:16:38.333Z,98.44
2022-10-17T00:19:40.582Z,97.64
2022-10-17T00:22:42.668Z,97.86
2022-10-17T00:25:45.066Z,96.57
2022-10-17T00:28:48.781Z,96.99
2022-10-17T00:31:54.965Z,95.99
2022-10-17T00:34:58.002Z,96.51
2022-10-17T00:38:00.673Z,96.36
2022-10-17T00:41:03.328Z,96.03
2022-10-17T00:44:31.692Z,96.53
2022-10-17T00:47:34.402Z,97.42
2022-10-17T00:50:39.288Z,100.00
2022-10-17T00:53:41.292Z,99.79
2022-10-17T00:56:44.107Z,99.17
2022-10-17T00:59:52.092Z,100.00
2022-10-17T01:02:54.544Z,99.69
2022-10-17T01:05:57.409Z,99.57
2022-10-17T01:09:00.172Z,100.00
2022-10-17T01:12:17.350Z,98.87
2022-10-17T01:15:37.504Z,98.51
2022-10-17T01:19:16.698Z,99.31
2022-10-17T01:22:37.405Z,98.32
2022-10-17T01:25:50.363Z,96.07
2022-10-17T01:29:33.178Z,95.98
2022-10-17T01:32:39.931Z,95.37
2022-10-17T01:36:06.115Z,98.80
2022-10-17T01:39:21.532Z,98.48
2022-10-17T01:42:31.601Z,97.97
2022-10-17T01:46:06.188Z,97.54
2022-10-17T01:49:10.352Z,95.64
2022-10-17T01:52:16.578Z,95.99
2022-10-17T01:55:21.805Z,97.78
2022-10-17T01:58:34.487Z,100.00
2022-10-17T02:01:38.581Z,100.00
2022-10-17T02:04:42.154Z,99.58
2022-10-17T02:07:44.410Z,98.21
2022-10-17T02:11:02.590Z,97.64
2022-10-17T02:14:04.873Z,97.00
2022-10-17T02:17:25.901Z,97.08
2022-10-17T02:21:07.335Z,96.36
2022-10-17T02:24:31.945Z,94.95
2022-10-17T02:27:45.470Z,95.27
2022-10-17T02:30:57.070Z,95.96
2022-10-17T02:34:03.074Z,96.99
2022-10-17T02:37:07.611Z,99.17
2022-10-17T02:40:11.209Z,98.31
2022-10-17T02:43:14.753Z,96.44
2022-10-17T02:46:22.496Z,95.76
2022-10-17T02:49:28.921Z,95.68
2022-10-17T02:52:40.553Z,97.01
2022-10-17T02:55:54.284Z,97.98
2022-10-17T02:58:58.807Z,97.36
2022-10-17T03:02:04.148Z,97.11
2022-10-17T03:05:07.520Z,100.00
2022-10-17T03:08:09.562Z,100.00
2022-10-17T03:11:11.844Z,100.00
2022-10-17T03:14:14.760Z,100.00
2022-10-17T03:17:17.943Z,100.00
2022-10-17T03:20:20.841Z,100.00
2022-10-17T03:23:23.185Z,100.00
2022-10-17T03:26:25.335Z,100.00
2022-10-17T03:29:27.838Z,100.00
2022-10-17T03:32:30.059Z,100.00
2022-10-17T03:35:32.275Z,100.00
2022-10-17T03:38:35.637Z,100.00
2022-10-17T03:41:38.098Z,100.00
2022-10-17T03:44:40.146Z,100.00
2022-10-17T03:47:42.591Z,100.00
2022-10-17T03:50:45.073Z,100.00
2022-10-17T03:53:47.526Z,100.00
2022-10-17T03:56:49.585Z,100.00
2022-10-17T03:59:54.795Z,100.00
2022-10-17T04:02:58.241Z,100.00
2022-10-17T04:06:03.723Z,100.00
2022-10-17T04:09:08.202Z,100.00
2022-10-17T04:12:19.510Z,100.00
2022-10-17T04:15:22.112Z,100.00
2022-10-17T04:18:24.764Z,100.00
2022-10-17T04:21:28.393Z,100.00
2022-10-17T04:24:32.487Z,100.00
2022-10-17T04:27:43.780Z,100.00
2022-10-17T04:30:46.907Z,100.00
2022-10-17T04:33:50.679Z,99.26
2022-10-17T04:36:53.186Z,98.62
2022-10-17T04:39:55.496Z,98.95
2022-10-17T04:42:57.951Z,97.91
2022-10-17T04:46:13.630Z,96.40
2022-10-17T04:49:16.117Z,96.51
2022-10-17T04:52:21.108Z,95.90
2022-10-17T04:55:26.198Z,98.12
2022-10-17T04:58:30.091Z,98.28
2022-10-17T05:01:32.440Z,97.69
2022-10-17T05:04:35.089Z,97.00
2022-10-17T05:07:40.827Z,96.10
2022-10-17T05:10:48.962Z,95.20
2022-10-17T05:13:56.560Z,95.19
2022-10-17T05:16:59.644Z,96.34
2022-10-17T05:20:02.122Z,97.40
2022-10-17T05:23:06.673Z,98.36
2022-10-17T05:26:14.736Z,98.13
2022-10-17T05:29:17.358Z,97.62
2022-10-17T05:32:25.335Z,96.70
2022-10-17T05:35:27.372Z,97.34
2022-10-17T05:38:29.677Z,97.81
2022-10-17T05:41:32.314Z,97.95
2022-10-17T05:44:34.677Z,99.83
2022-10-17T05:47:36.818Z,100.00
2022-10-17T05:50:39.815Z,100.00
2022-10-17T05:53:50.060Z,100.00
2022-10-17T05:56:58.883Z,100.00
2022-10-17T06:00:06.363Z,100.00
2022-10-17T06:03:18.980Z,100.00
2022-10-17T06:06:22.333Z,100.00
2022-10-17T06:09:24.674Z,100.00
2022-10-17T06:12:29.409Z,100.00
2022-10-17T06:15:32.472Z,100.00
2022-10-17T06:18:40.200Z,100.00
2022-10-17T06:21:47.371Z,100.00
2022-10-17T06:24:54.738Z,100.00
2022-10-17T06:27:58.280Z,100.00
2022-10-17T06:31:05.046Z,100.00
2022-10-17T06:34:07.151Z,100.00
2022-10-17T06:37:10.560Z,100.00
2022-10-17T06:40:16.907Z,100.00
2022-10-17T06:43:25.563Z,100.00
2022-10-17T06:46:50.386Z,100.00
2022-10-17T06:49:53.589Z,100.00
2022-10-17T06:53:01.530Z,100.00
2022-10-17T06:56:26.867Z,100.00
2022-10-17T06:59:44.487Z,100.00
2022-10-17T07:02:53.018Z,100.00
2022-10-17T07:05:56.201Z,100.00
2022-10-17T07:09:01.140Z,100.00
2022-10-17T07:12:03.497Z,100.00
2022-10-17T07:15:06.221Z,100.00
2022-10-17T07:18:10.016Z,100.00
2022-10-17T07:21:12.190Z,100.00
2022-10-17T07:24:15.674Z,100.00
2022-10-17T07:27:22.611Z,100.00
2022-10-17T07:30:24.949Z,100.00
2022-10-17T07:33:47.503Z,100.00
2022-10-17T07:36:52.089Z,100.00
2022-10-17T07:39:54.676Z,100.00
2022-10-17T07:42:56.878Z,100.00
2022-10-17T07:46:01.731Z,100.00
2022-10-17T07:49:04.926Z,100.00
2022-10-17T07:52:07.545Z,99.59
2022-10-17T07:55:10.040Z,99.40
2022-10-17T07:58:12.990Z,98.47
2022-10-17T08:01:15.927Z,97.70
2022-10-17T08:04:18.656Z,98.01
2022-10-17T08:07:25.492Z,99.35
2022-10-17T08:10:30.890Z,97.33
2022-10-17T08:13:33.159Z,95.99
2022-10-17T08:16:35.737Z,94.03
2022-10-17T08:19:40.978Z,95.09
2022-10-17T08:22:43.453Z,93.94
2022-10-17T08:25:45.539Z,93.96
2022-10-17T08:28:48.192Z,91.54
2022-10-17T08:31:54.088Z,89.69
2022-10-17T08:35:01.353Z,89.27
2022-10-17T08:38:03.846Z,87.21
2022-10-17T08:41:32.545Z,86.39
2022-10-17T08:44:53.443Z,84.25
2022-10-17T08:48:00.564Z,83.67
2022-10-17T08:51:09.614Z,86.91
2022-10-17T08:54:18.633Z,86.60
2022-10-17T08:57:20.881Z,84.80
2022-10-17T09:00:23.682Z,82.58
2022-10-17T09:03:41.839Z,81.41
2022-10-17T09:07:08.742Z,79.13
2022-10-17T09:10:38.815Z,78.17
2022-10-17T09:13:41.057Z,77.70
2022-10-17T09:17:12.557Z,76.99
2022-10-17T09:20:16.546Z,73.43
2022-10-17T09:23:28.580Z,73.35
2022-10-17T09:26:30.976Z,74.22
2022-10-17T09:29:37.949Z,72.13
2022-10-17T09:32:43.115Z,72.09
2022-10-17T09:35:46.066Z,70.03
2022-10-17T09:39:13.748Z,70.64
2022-10-17T09:42:22.051Z,70.93
2022-10-17T09:45:26.794Z,71.28
2022-10-17T09:48:34.227Z,68.37
2022-10-17T09:51:37.914Z,68.71
2022-10-17T09:54:41.839Z,68.09
2022-10-17T09:58:04.861Z,66.58
2022-10-17T10:01:26.890Z,66.48
2022-10-17T10:04:30.383Z,65.46
2022-10-17T10:07:39.662Z,65.93
2022-10-17T10:10:45.861Z,67.31
2022-10-17T10:13:49.554Z,64.97
2022-10-17T10:16:53.884Z,63.61
2022-10-17T10:19:56.461Z,62.65
2022-10-17T10:23:14.442Z,62.66
2022-10-17T10:26:27.887Z,59.22
2022-10-17T10:29:34.510Z,61.46
2022-10-17T10:32:37.701Z,59.23
2022-10-17T10:35:40.168Z,59.71
2022-10-17T10:38:43.642Z,59.34
2022-10-17T10:41:48.925Z,60.26
2022-10-17T10:44:52.457Z,59.86
2022-10-17T10:47:56.962Z,59.27
2022-10-17T10:51:02.749Z,57.55
2022-10-17T10:54:21.594Z,59.93
2022-10-17T10:57:25.941Z,57.40
2022-10-17T11:00:29.457Z,57.64
2022-10-17T11:03:38.038Z,59.23
2022-10-17T11:06:41.945Z,58.21
2022-10-17T11:09:50.120Z,56.77
2022-10-17T11:13:04.098Z,56.48
2022-10-17T11:16:24.806Z,54.14
2022-10-17T11:19:34.247Z,55.82
2022-10-17T11:22:47.184Z,54.79
2022-10-17T11:25:51.833Z,57.42
2022-10-17T11:28:55.030Z,54.24
2022-10-17T11:32:06.146Z,54.51
2022-10-17T11:35:23.715Z,54.75
2022-10-17T11:38:46.312Z,54.72
2022-10-17T11:41:58.837Z,53.43
2022-10-17T11:45:18.604Z,55.72
2022-10-17T11:49:04.118Z,55.78
2022-10-17T11:52:56.466Z,54.29
2022-10-17T11:56:00.630Z,52.96
2022-10-17T11:59:29.860Z,54.67
2022-10-17T12:02:39.175Z,52.88
2022-10-17T12:05:53.292Z,53.48
2022-10-17T12:09:04.218Z,53.83
2022-10-17T12:12:07.029Z,53.46
2022-10-17T12:15:12.051Z,53.41
2022-10-17T12:18:17.346Z,54.03
2022-10-17T12:21:19.487Z,52.89
2022-10-17T12:24:34.533Z,54.81
2022-10-17T12:27:42.311Z,52.89
2022-10-17T12:30:50.487Z,54.56
2022-10-17T12:34:03.652Z,55.16
2022-10-17T12:37:11.433Z,52.78
2022-10-17T12:40:35.097Z,53.96
2022-10-17T12:43:44.933Z,53.53
2022-10-17T12:46:57.535Z,54.74
2022-10-17T12:50:00.000Z,53.92
2022-10-17T12:53:06.762Z,53.82
2022-10-17T12:56:09.303Z,52.67
2022-10-17T12:59:14.361Z,52.99
2022-10-17T13:02:20.638Z,53.82
2022-10-17T13:05:28.501Z,53.58
2022-10-17T13:08:34.351Z,54.42
2022-10-17T13:11:38.152Z,53.99
2022-10-17T13:14:42.640Z,54.55
2022-10-17T13:17:45.107Z,55.34
2022-10-17T13:21:07.223Z,55.58
2022-10-17T13:24:32.733Z,54.67
2022-10-17T13:27:35.856Z,55.47
2022-10-17T13:30:38.117Z,55.77
2022-10-17T13:33:41.081Z,55.60
2022-10-17T13:36:48.516Z,55.60
2022-10-17T13:40:07.068Z,55.91
2022-10-17T13:43:19.717Z,55.45
2022-10-17T13:46:37.956Z,57.47
2022-10-17T13:49:41.955Z,56.62
2022-10-17T13:52:44.350Z,56.35
2022-10-17T13:59:41.403Z,57.04
2022-10-17T14:02:43.684Z,57.96
2022-10-17T14:06:25.185Z,56.88
2022-10-17T14:09:29.352Z,57.82
2022-10-17T14:12:31.766Z,58.69
2022-10-17T14:15:35.745Z,59.45
2022-10-17T14:18:38.672Z,59.82
2022-10-17T14:21:44.608Z,60.00
2022-10-17T14:24:47.890Z,59.87
2022-10-17T14:27:57.984Z,60.33
2022-10-17T14:31:15.565Z,60.82
2022-10-17T14:34:24.941Z,61.01
2022-10-17T14:37:47.700Z,60.77
2022-10-17T14:41:37.369Z,60.41
2022-10-17T14:44:29.996Z,61.26
2022-10-17T14:47:43.242Z,61.29
2022-10-17T14:51:09.312Z,62.23
2022-10-17T14:54:20.295Z,62.08
2022-10-17T14:57:28.755Z,63.38
2022-10-17T15:00:31.217Z,64.48
2022-10-17T15:03:33.623Z,64.58
2022-10-17T15:06:35.774Z,66.35
2022-10-17T15:09:38.117Z,65.34
2022-10-17T15:12:47.913Z,67.30
2022-10-17T15:15:59.768Z,66.55
2022-10-17T15:19:02.037Z,66.57
2022-10-17T15:22:04.501Z,67.36
2022-10-17T15:25:07.444Z,67.37
2022-10-17T15:28:13.172Z,67.92
2022-10-17T15:31:18.202Z,68.40
2022-10-17T15:34:20.568Z,69.14
2022-10-17T15:37:25.469Z,69.41
2022-10-17T15:40:30.026Z,70.09
2022-10-17T15:43:32.244Z,71.04
2022-10-17T15:46:35.552Z,70.60
2022-10-17T15:49:37.611Z,70.57
2022-10-17T15:52:41.249Z,70.25
2022-10-17T15:55:43.384Z,70.28
2022-10-17T15:58:45.756Z,69.94
2022-10-17T16:01:48.776Z,71.78
2022-10-17T16:04:51.853Z,72.20
2022-10-17T16:07:54.843Z,72.24
2022-10-17T16:10:57.474Z,73.53
2022-10-17T16:14:02.208Z,74.58
2022-10-17T16:17:04.915Z,73.88
2022-10-17T16:20:07.801Z,74.02
2022-10-17T16:23:12.263Z,74.48
2022-10-17T16:26:16.106Z,76.97
2022-10-17T16:29:19.588Z,76.00
2022-10-17T16:32:21.788Z,74.79
2022-10-17T16:35:33.171Z,75.73
2022-10-17T16:38:38.943Z,76.05
2022-10-17T16:41:41.361Z,76.32
2022-10-17T16:44:43.475Z,77.25
2022-10-17T16:47:46.219Z,78.37
2022-10-17T16:50:48.519Z,79.18
2022-10-17T16:53:54.390Z,80.73
2022-10-17T16:56:59.461Z,80.19
2022-10-17T17:00:02.624Z,80.02
2022-10-17T17:03:04.907Z,81.62
2022-10-17T17:06:08.721Z,81.64
2022-10-17T17:09:10.961Z,83.16
2022-10-17T17:12:13.605Z,82.42
2022-10-17T17:15:15.739Z,83.04
2022-10-17T17:18:18.130Z,84.48
2022-10-17T17:21:20.241Z,84.98
2022-10-17T17:24:22.748Z,84.71
2022-10-17T17:27:28.407Z,85.19
2022-10-17T17:30:31.030Z,85.38
2022-10-17T17:33:33.931Z,85.74
2022-10-17T17:36:37.680Z,86.93
2022-10-17T17:39:39.964Z,87.36
2022-10-17T17:42:42.749Z,86.53
2022-10-17T17:45:46.085Z,87.26
2022-10-17T17:48:49.687Z,88.76
2022-10-17T17:51:52.002Z,87.79
2022-10-17T17:54:54.477Z,87.90
2022-10-17T17:57:57.113Z,88.42
2022-10-17T18:01:00.379Z,89.49
2022-10-17T18:04:02.645Z,88.06
2022-10-17T18:07:04.830Z,86.50
2022-10-17T18:10:07.965Z,86.80
2022-10-17T18:13:10.336Z,88.43
2022-10-17T18:16:13.505Z,89.44
2022-10-17T18:19:16.492Z,88.85
2022-10-17T18:22:18.607Z,88.89
2022-10-17T18:25:20.985Z,89.43
2022-10-17T18:28:24.052Z,89.85
2022-10-17T18:31:32.296Z,90.03
2022-10-17T18:34:34.628Z,89.60
2022-10-17T18:37:36.930Z,89.65
2022-10-17T18:40:38.978Z,89.74
2022-10-17T18:43:43.030Z,89.80
2022-10-17T18:49:48.781Z,90.97
2022-10-17T18:52:51.300Z,88.99
2022-10-17T18:55:54.658Z,90.41
2022-10-17T18:58:57.072Z,89.45
2022-10-17T19:01:59.703Z,89.08
2022-10-17T19:05:02.161Z,89.51
2022-10-17T19:08:04.953Z,89.64
2022-10-17T19:11:13.672Z,90.25
2022-10-17T19:14:16.264Z,89.78
2022-10-17T19:17:19.443Z,90.10
2022-10-17T19:20:21.811Z,90.29
2022-10-17T19:23:24.070Z,89.61
2022-10-17T19:26:28.361Z,88.76
2022-10-17T19:29:33.936Z,89.99
2022-10-17T19:32:36.666Z,89.50
2022-10-17T19:35:39.950Z,88.48
2022-10-17T19:38:42.171Z,89.04
2022-10-17T19:41:46.105Z,88.65
2022-10-17T19:44:48.361Z,88.25
2022-10-17T19:47:50.698Z,88.63
2022-10-17T19:50:53.608Z,88.46
2022-10-17T19:53:57.251Z,87.87
2022-10-17T19:56:59.574Z,88.00
2022-10-17T20:00:01.823Z,87.28
2022-10-17T20:03:13.677Z,88.02
2022-10-17T20:06:16.254Z,88.17
2022-10-17T20:09:18.623Z,88.65
2022-10-17T20:12:20.813Z,87.90
2022-10-17T20:15:23.265Z,89.28
2022-10-17T20:18:26.641Z,89.63
2022-10-17T20:21:32.565Z,88.28
2022-10-17T20:24:34.843Z,87.41
2022-10-17T20:27:37.337Z,88.17
2022-10-17T20:30:45.548Z,87.70
2022-10-17T20:33:47.875Z,87.69
2022-10-17T20:36:50.375Z,88.14
2022-10-17T20:40:16.644Z,88.76
2022-10-17T20:43:14.914Z,88.20
2022-10-17T20:46:35.163Z,88.82
2022-10-17T20:49:37.781Z,87.47
2022-10-17T20:52:40.114Z,86.99
2022-10-17T20:55:42.440Z,87.51
2022-10-17T20:58:44.673Z,86.57
2022-10-17T21:01:47.410Z,87.35
2022-10-17T21:04:49.936Z,87.75
2022-10-17T21:07:52.097Z,88.03
2022-10-17T21:10:54.394Z,88.68
2022-10-17T21:14:04.862Z,88.75
2022-10-17T21:17:07.211Z,88.46
2022-10-17T21:20:10.198Z,88.36
2022-10-17T21:23:12.541Z,88.57
2022-10-17T21:26:15.664Z,89.04
2022-10-17T21:29:18.032Z,89.12
2022-10-17T21:32:33.399Z,90.24
2022-10-17T21:35:42.295Z,90.44
2022-10-17T21:38:46.165Z,90.22
2022-10-17T21:41:48.332Z,93.03
2022-10-17T21:44:50.369Z,92.61
2022-10-17T21:48:11.820Z,92.33
2022-10-17T21:51:17.084Z,92.10
2022-10-17T21:54:20.071Z,92.23
2022-10-17T21:57:22.510Z,91.11
2022-10-17T22:00:24.799Z,92.53
2022-10-17T22:03:27.005Z,92.37
2022-10-17T22:06:39.619Z,91.57
2022-10-17T22:09:42.435Z,90.98
2022-10-17T22:12:44.662Z,91.59
2022-10-17T22:15:46.742Z,89.94
2022-10-17T22:18:49.192Z,90.53
2022-10-17T22:21:51.541Z,89.27
2022-10-17T22:24:53.947Z,87.90
2022-10-17T22:27:55.907Z,87.42
2022-10-17T22:30:58.275Z,87.38
2022-10-17T22:34:00.622Z,87.27
2022-10-17T22:37:02.981Z,87.24
2022-10-17T22:40:06.237Z,88.23
2022-10-17T22:43:08.476Z,87.55
2022-10-17T22:46:12.887Z,87.56
2022-10-17T22:49:15.271Z,87.21
2022-10-17T22:52:17.285Z,86.32
2022-10-17T22:55:19.550Z,85.27
2022-10-17T22:58:22.578Z,85.79
2022-10-17T23:01:25.646Z,86.37
2022-10-17T23:04:27.794Z,86.60
2022-10-17T23:07:30.813Z,85.28
2022-10-17T23:10:33.067Z,87.03
2022-10-17T23:13:35.562Z,87.28
2022-10-17T23:16:37.653Z,87.34
2022-10-17T23:19:40.192Z,87.37
2022-10-17T23:22:42.239Z,87.95
2022-10-17T23:25:44.546Z,87.31
2022-10-17T23:28:47.006Z,86.40
2022-10-17T23:31:49.626Z,87.13
2022-10-17T23:34:51.659Z,86.75
2022-10-17T23:37:53.868Z,86.92
2022-10-17T23:40:55.863Z,87.88
2022-10-17T23:43:58.636Z,87.36
2022-10-17T23:47:00.663Z,87.54
2022-10-17T23:50:03.568Z,86.30
2022-10-17T23:53:05.568Z,87.13
2022-10-17T23:56:09.431Z,88.47
2022-10-17T23:59:11.516Z,88.97
